sensor_id;sensor_type;location;lat;lon;timestamp;pressure;altitude;pressure_sealevel;temperature;humidity
9525;BME280;15940;48.734;9.112;2023-06-14T00:00:19;96034.16;;;14.56;51.15
9525;BME280;15940;48.734;9.112;2023-06-14T00:02:48;96045.06;;;14.70;51.86
9525;BME280;15940;48.734;9.112;2023-06-14T00:05:19;96047.47;;;14.73;51.84
9525;BME280;15940;48.734;9.112;2023-06-14T00:07:46;96054.81;;;14.78;52.04
9525;BME280;15940;48.734;9.112;2023-06-14T00:10:14;96059.06;;;14.87;52.07
9525;BME280;15940;48.734;9.112;2023-06-14T00:12:42;96053.13;;;14.89;51.90
9525;BME280;15940;48.734;9.112;2023-06-14T00:15:09;96051.19;;;14.97;51.88
9525;BME280;15940;48.734;9.112;2023-06-14T00:17:36;96051.97;;;14.84;52.27
9525;BME280;15940;48.734;9.112;2023-06-14T00:20:06;96048.59;;;14.91;51.37
9525;BME280;15940;48.734;9.112;2023-06-14T00:22:34;96048.69;;;14.85;51.52
9525;BME280;15940;48.734;9.112;2023-06-14T00:25:02;96050.06;;;14.92;51.74
9525;BME280;15940;48.734;9.112;2023-06-14T00:27:29;96056.13;;;14.98;51.48
9525;BME280;15940;48.734;9.112;2023-06-14T00:29:56;96048.88;;;15.01;51.86
9525;BME280;15940;48.734;9.112;2023-06-14T00:32:24;96049.41;;;14.99;51.51
9525;BME280;15940;48.734;9.112;2023-06-14T00:34:51;96045.97;;;14.99;51.94
9525;BME280;15940;48.734;9.112;2023-06-14T00:37:19;96053.41;;;14.98;51.94
9525;BME280;15940;48.734;9.112;2023-06-14T00:39:46;96046.81;;;14.94;52.09
9525;BME280;15940;48.734;9.112;2023-06-14T00:42:23;96050.50;;;14.83;51.83
9525;BME280;15940;48.734;9.112;2023-06-14T00:44:51;96048.41;;;14.89;52.29
9525;BME280;15940;48.734;9.112;2023-06-14T00:47:18;96047.00;;;14.96;51.51
9525;BME280;15940;48.734;9.112;2023-06-14T00:49:47;96043.56;;;14.82;51.78
9525;BME280;15940;48.734;9.112;2023-06-14T00:52:14;96049.03;;;14.82;52.52
9525;BME280;15940;48.734;9.112;2023-06-14T00:54:43;96045.13;;;14.91;51.60
9525;BME280;15940;48.734;9.112;2023-06-14T00:57:11;96046.59;;;14.92;51.82
9525;BME280;15940;48.734;9.112;2023-06-14T00:59:46;96041.69;;;14.90;51.20
9525;BME280;15940;48.734;9.112;2023-06-14T01:02:15;96035.69;;;14.92;50.83
9525;BME280;15940;48.734;9.112;2023-06-14T01:04:44;96040.28;;;14.97;50.96
9525;BME280;15940;48.734;9.112;2023-06-14T01:07:21;96040.50;;;14.99;50.72
9525;BME280;15940;48.734;9.112;2023-06-14T01:10:07;96044.06;;;14.94;51.19
9525;BME280;15940;48.734;9.112;2023-06-14T01:12:44;96040.28;;;14.97;50.91
9525;BME280;15940;48.734;9.112;2023-06-14T01:15:14;96041.25;;;14.99;51.25
9525;BME280;15940;48.734;9.112;2023-06-14T01:17:42;96042.63;;;14.93;51.20
9525;BME280;15940;48.734;9.112;2023-06-14T01:20:12;96040.94;;;14.90;51.81
9525;BME280;15940;48.734;9.112;2023-06-14T01:22:51;96036.88;;;14.83;51.29
9525;BME280;15940;48.734;9.112;2023-06-14T01:25:22;96042.13;;;14.81;51.93
9525;BME280;15940;48.734;9.112;2023-06-14T01:27:51;96056.72;;;14.70;51.78
9525;BME280;15940;48.734;9.112;2023-06-14T01:30:20;96052.91;;;14.73;51.93
9525;BME280;15940;48.734;9.112;2023-06-14T01:32:49;96044.41;;;14.77;51.20
9525;BME280;15940;48.734;9.112;2023-06-14T01:35:17;96053.44;;;14.72;51.79
9525;BME280;15940;48.734;9.112;2023-06-14T01:37:44;96054.19;;;14.72;51.61
9525;BME280;15940;48.734;9.112;2023-06-14T01:40:15;96050.22;;;14.60;51.62
9525;BME280;15940;48.734;9.112;2023-06-14T01:42:43;96054.19;;;14.59;51.72
9525;BME280;15940;48.734;9.112;2023-06-14T01:45:12;96044.84;;;14.54;51.67
9525;BME280;15940;48.734;9.112;2023-06-14T01:47:39;96053.56;;;14.53;52.00
9525;BME280;15940;48.734;9.112;2023-06-14T01:50:07;96039.22;;;14.52;51.61
9525;BME280;15940;48.734;9.112;2023-06-14T01:52:34;96046.84;;;14.54;51.60
9525;BME280;15940;48.734;9.112;2023-06-14T01:55:01;96049.47;;;14.46;51.92
9525;BME280;15940;48.734;9.112;2023-06-14T01:57:30;96050.22;;;14.47;51.93
9525;BME280;15940;48.734;9.112;2023-06-14T01:59:57;96050.00;;;14.45;51.84
9525;BME280;15940;48.734;9.112;2023-06-14T02:02:23;96044.13;;;14.54;51.79
9525;BME280;15940;48.734;9.112;2023-06-14T02:04:50;96047.78;;;14.56;51.70
9525;BME280;15940;48.734;9.112;2023-06-14T02:07:17;96043.72;;;14.50;52.06
9525;BME280;15940;48.734;9.112;2023-06-14T02:09:44;96047.78;;;14.43;51.95
9525;BME280;15940;48.734;9.112;2023-06-14T02:12:11;96045.59;;;14.42;52.08
9525;BME280;15940;48.734;9.112;2023-06-14T02:14:39;96046.94;;;14.35;51.99
9525;BME280;15940;48.734;9.112;2023-06-14T02:17:06;96047.03;;;14.29;52.17
9525;BME280;15940;48.734;9.112;2023-06-14T02:19:33;96055.94;;;14.30;52.20
9525;BME280;15940;48.734;9.112;2023-06-14T02:22:00;96051.00;;;14.28;52.28
9525;BME280;15940;48.734;9.112;2023-06-14T02:24:27;96044.63;;;14.26;52.06
9525;BME280;15940;48.734;9.112;2023-06-14T02:26:54;96049.75;;;14.29;51.41
9525;BME280;15940;48.734;9.112;2023-06-14T02:29:21;96050.81;;;14.26;52.06
9525;BME280;15940;48.734;9.112;2023-06-14T02:31:49;96050.28;;;14.28;51.88
9525;BME280;15940;48.734;9.112;2023-06-14T02:34:16;96049.97;;;14.18;52.44
9525;BME280;15940;48.734;9.112;2023-06-14T02:36:44;96050.56;;;14.11;52.40
9525;BME280;15940;48.734;9.112;2023-06-14T02:39:11;96051.41;;;14.06;52.65
9525;BME280;15940;48.734;9.112;2023-06-14T02:41:38;96053.53;;;14.13;52.51
9525;BME280;15940;48.734;9.112;2023-06-14T02:44:06;96048.09;;;14.13;52.79
9525;BME280;15940;48.734;9.112;2023-06-14T02:46:33;96041.91;;;14.13;52.67
9525;BME280;15940;48.734;9.112;2023-06-14T02:49:02;96041.38;;;14.14;52.12
9525;BME280;15940;48.734;9.112;2023-06-14T02:51:29;96050.06;;;14.13;52.52
9525;BME280;15940;48.734;9.112;2023-06-14T02:53:55;96039.78;;;14.06;52.75
9525;BME280;15940;48.734;9.112;2023-06-14T02:56:23;96043.03;;;14.04;52.79
9525;BME280;15940;48.734;9.112;2023-06-14T02:58:51;96044.06;;;14.01;52.97
9525;BME280;15940;48.734;9.112;2023-06-14T03:01:19;96047.84;;;13.98;53.19
9525;BME280;15940;48.734;9.112;2023-06-14T03:03:47;96043.25;;;13.93;52.52
9525;BME280;15940;48.734;9.112;2023-06-14T03:06:15;96043.31;;;13.87;53.16
9525;BME280;15940;48.734;9.112;2023-06-14T03:08:42;96043.84;;;13.86;53.36
9525;BME280;15940;48.734;9.112;2023-06-14T03:11:09;96053.88;;;13.91;52.93
9525;BME280;15940;48.734;9.112;2023-06-14T03:13:36;96045.72;;;13.91;52.95
9525;BME280;15940;48.734;9.112;2023-06-14T03:16:04;96047.84;;;13.98;52.98
9525;BME280;15940;48.734;9.112;2023-06-14T03:18:32;96044.19;;;13.95;52.53
9525;BME280;15940;48.734;9.112;2023-06-14T03:21:01;96050.22;;;13.88;52.83
9525;BME280;15940;48.734;9.112;2023-06-14T03:25:48;96058.19;;;13.86;52.87
9525;BME280;15940;48.734;9.112;2023-06-14T03:28:15;96060.25;;;13.80;52.97
9525;BME280;15940;48.734;9.112;2023-06-14T03:30:42;96064.66;;;13.83;53.16
9525;BME280;15940;48.734;9.112;2023-06-14T03:35:40;96061.44;;;13.85;52.98
9525;BME280;15940;48.734;9.112;2023-06-14T03:38:07;96066.66;;;13.83;53.17
9525;BME280;15940;48.734;9.112;2023-06-14T03:40:34;96071.81;;;13.86;53.20
9525;BME280;15940;48.734;9.112;2023-06-14T03:43:01;96069.81;;;13.87;53.24
9525;BME280;15940;48.734;9.112;2023-06-14T03:45:28;96074.94;;;13.90;53.29
9525;BME280;15940;48.734;9.112;2023-06-14T03:47:55;96071.19;;;13.93;53.10
9525;BME280;15940;48.734;9.112;2023-06-14T03:50:22;96082.09;;;13.93;53.02
9525;BME280;15940;48.734;9.112;2023-06-14T03:52:50;96084.50;;;13.97;53.03
9525;BME280;15940;48.734;9.112;2023-06-14T03:57:41;96086.81;;;13.93;53.53
9525;BME280;15940;48.734;9.112;2023-06-14T04:00:11;96087.00;;;13.95;53.50
9525;BME280;15940;48.734;9.112;2023-06-14T04:02:38;96086.81;;;14.06;53.62
9525;BME280;15940;48.734;9.112;2023-06-14T04:05:06;96092.44;;;13.95;54.03
9525;BME280;15940;48.734;9.112;2023-06-14T04:07:34;96087.81;;;13.90;54.26
9525;BME280;15940;48.734;9.112;2023-06-14T04:10:06;96095.91;;;13.95;54.46
9525;BME280;15940;48.734;9.112;2023-06-14T04:12:35;96102.91;;;13.91;54.71
9525;BME280;15940;48.734;9.112;2023-06-14T04:15:05;96099.25;;;14.01;54.34
9525;BME280;15940;48.734;9.112;2023-06-14T04:17:33;96101.16;;;13.93;54.65
9525;BME280;15940;48.734;9.112;2023-06-14T04:20:01;96108.22;;;13.83;54.48
9525;BME280;15940;48.734;9.112;2023-06-14T04:22:29;96111.38;;;13.87;54.12
9525;BME280;15940;48.734;9.112;2023-06-14T04:24:57;96117.13;;;13.84;54.47
9525;BME280;15940;48.734;9.112;2023-06-14T04:27:25;96108.44;;;13.85;55.39
9525;BME280;15940;48.734;9.112;2023-06-14T04:29:53;96117.16;;;13.97;55.02
9525;BME280;15940;48.734;9.112;2023-06-14T04:32:24;96112.59;;;14.18;54.71
9525;BME280;15940;48.734;9.112;2023-06-14T04:34:53;96114.31;;;14.35;53.99
9525;BME280;15940;48.734;9.112;2023-06-14T04:37:20;96115.50;;;14.52;53.82
9525;BME280;15940;48.734;9.112;2023-06-14T04:39:47;96117.22;;;14.69;53.37
9525;BME280;15940;48.734;9.112;2023-06-14T04:44:36;96114.78;;;14.78;53.09
9525;BME280;15940;48.734;9.112;2023-06-14T04:49:33;96118.44;;;14.94;52.75
9525;BME280;15940;48.734;9.112;2023-06-14T04:52:00;96126.91;;;15.04;52.40
9525;BME280;15940;48.734;9.112;2023-06-14T04:54:28;96118.94;;;15.06;51.50
9525;BME280;15940;48.734;9.112;2023-06-14T04:56:57;96128.28;;;15.10;51.66
9525;BME280;15940;48.734;9.112;2023-06-14T04:59:24;96131.31;;;15.20;52.23
9525;BME280;15940;48.734;9.112;2023-06-14T05:04:18;96135.16;;;15.25;51.44
9525;BME280;15940;48.734;9.112;2023-06-14T05:06:45;96139.38;;;15.26;51.90
9525;BME280;15940;48.734;9.112;2023-06-14T05:09:14;96141.25;;;15.31;51.96
9525;BME280;15940;48.734;9.112;2023-06-14T05:11:41;96151.25;;;15.28;52.00
9525;BME280;15940;48.734;9.112;2023-06-14T05:14:10;96147.16;;;15.22;51.85
9525;BME280;15940;48.734;9.112;2023-06-14T05:16:37;96152.19;;;15.18;52.41
9525;BME280;15940;48.734;9.112;2023-06-14T05:19:04;96156.50;;;15.13;52.53
9525;BME280;15940;48.734;9.112;2023-06-14T05:21:33;96152.41;;;15.06;52.86
9525;BME280;15940;48.734;9.112;2023-06-14T05:24:00;96149.47;;;15.04;52.39
9525;BME280;15940;48.734;9.112;2023-06-14T05:26:27;96149.59;;;14.99;52.19
9525;BME280;15940;48.734;9.112;2023-06-14T05:28:55;96157.03;;;14.98;52.93
9525;BME280;15940;48.734;9.112;2023-06-14T05:31:23;96151.34;;;14.96;53.19
9525;BME280;15940;48.734;9.112;2023-06-14T05:33:50;96158.31;;;14.97;53.68
9525;BME280;15940;48.734;9.112;2023-06-14T05:36:17;96165.44;;;15.00;52.43
9525;BME280;15940;48.734;9.112;2023-06-14T05:38:46;96161.13;;;15.05;52.18
9525;BME280;15940;48.734;9.112;2023-06-14T05:41:13;96160.59;;;15.06;52.64
9525;BME280;15940;48.734;9.112;2023-06-14T05:43:40;96163.22;;;15.12;52.64
9525;BME280;15940;48.734;9.112;2023-06-14T05:46:07;96156.69;;;15.15;52.66
9525;BME280;15940;48.734;9.112;2023-06-14T05:48:34;96158.59;;;15.20;53.68
9525;BME280;15940;48.734;9.112;2023-06-14T05:51:00;96152.28;;;15.25;53.28
9525;BME280;15940;48.734;9.112;2023-06-14T05:53:28;96167.28;;;15.32;53.57
9525;BME280;15940;48.734;9.112;2023-06-14T05:55:56;96169.56;;;15.41;53.08
9525;BME280;15940;48.734;9.112;2023-06-14T05:58:23;96169.34;;;15.52;52.79
9525;BME280;15940;48.734;9.112;2023-06-14T06:00:50;96166.69;;;15.60;52.85
9525;BME280;15940;48.734;9.112;2023-06-14T06:03:19;96163.34;;;15.67;52.83
9525;BME280;15940;48.734;9.112;2023-06-14T06:05:46;96163.75;;;15.71;52.48
9525;BME280;15940;48.734;9.112;2023-06-14T06:08:13;96164.38;;;15.77;52.20
9525;BME280;15940;48.734;9.112;2023-06-14T06:10:45;96169.19;;;15.84;52.68
9525;BME280;15940;48.734;9.112;2023-06-14T06:13:20;96160.84;;;15.90;52.06
9525;BME280;15940;48.734;9.112;2023-06-14T06:15:47;96168.03;;;16.00;52.61
9525;BME280;15940;48.734;9.112;2023-06-14T06:18:14;96166.84;;;16.09;50.80
9525;BME280;15940;48.734;9.112;2023-06-14T06:20:41;96175.00;;;16.22;51.43
9525;BME280;15940;48.734;9.112;2023-06-14T06:23:09;96170.00;;;16.34;50.74
9525;BME280;15940;48.734;9.112;2023-06-14T06:28:05;96166.38;;;16.60;51.01
9525;BME280;15940;48.734;9.112;2023-06-14T06:30:32;96179.59;;;16.69;49.17
9525;BME280;15940;48.734;9.112;2023-06-14T06:32:59;96173.28;;;16.82;49.06
9525;BME280;15940;48.734;9.112;2023-06-14T06:35:26;96181.91;;;16.94;48.47
9525;BME280;15940;48.734;9.112;2023-06-14T06:37:53;96183.44;;;17.02;48.80
9525;BME280;15940;48.734;9.112;2023-06-14T06:40:21;96182.06;;;17.17;47.88
9525;BME280;15940;48.734;9.112;2023-06-14T06:42:48;96180.16;;;17.40;47.97
9525;BME280;15940;48.734;9.112;2023-06-14T06:45:17;96183.38;;;17.67;47.10
9525;BME280;15940;48.734;9.112;2023-06-14T06:47:43;96180.19;;;17.91;46.76
9525;BME280;15940;48.734;9.112;2023-06-14T06:50:10;96193.00;;;18.27;44.50
9525;BME280;15940;48.734;9.112;2023-06-14T06:52:37;96202.34;;;18.54;44.41
9525;BME280;15940;48.734;9.112;2023-06-14T06:55:05;96192.31;;;18.95;43.99
9525;BME280;15940;48.734;9.112;2023-06-14T06:57:32;96194.06;;;19.23;41.86
9525;BME280;15940;48.734;9.112;2023-06-14T06:59:59;96206.09;;;19.43;42.91
9525;BME280;15940;48.734;9.112;2023-06-14T07:02:27;96202.97;;;19.94;41.86
9525;BME280;15940;48.734;9.112;2023-06-14T07:04:56;96208.28;;;19.92;41.22
9525;BME280;15940;48.734;9.112;2023-06-14T07:07:23;96206.56;;;20.05;41.83
9525;BME280;15940;48.734;9.112;2023-06-14T07:09:50;96211.66;;;20.08;41.40
9525;BME280;15940;48.734;9.112;2023-06-14T07:12:17;96215.16;;;20.09;41.82
9525;BME280;15940;48.734;9.112;2023-06-14T07:14:43;96209.25;;;20.45;40.67
9525;BME280;15940;48.734;9.112;2023-06-14T07:17:11;96204.94;;;20.59;39.84
9525;BME280;15940;48.734;9.112;2023-06-14T07:19:39;96214.88;;;20.79;39.09
9525;BME280;15940;48.734;9.112;2023-06-14T07:22:06;96207.91;;;20.78;40.59
9525;BME280;15940;48.734;9.112;2023-06-14T07:24:33;96216.94;;;20.71;41.21
9525;BME280;15940;48.734;9.112;2023-06-14T07:27:02;96221.09;;;20.80;41.96
9525;BME280;15940;48.734;9.112;2023-06-14T07:29:29;96223.72;;;20.95;40.21
9525;BME280;15940;48.734;9.112;2023-06-14T07:31:56;96232.09;;;21.05;40.80
9525;BME280;15940;48.734;9.112;2023-06-14T07:34:23;96226.47;;;20.95;40.19
9525;BME280;15940;48.734;9.112;2023-06-14T07:36:51;96234.84;;;21.05;40.92
9525;BME280;15940;48.734;9.112;2023-06-14T07:39:20;96223.81;;;21.05;39.99
9525;BME280;15940;48.734;9.112;2023-06-14T07:41:46;96230.53;;;21.11;41.59
9525;BME280;15940;48.734;9.112;2023-06-14T07:44:13;96235.19;;;21.26;40.71
9525;BME280;15940;48.734;9.112;2023-06-14T07:46:41;96241.97;;;21.25;40.05
9525;BME280;15940;48.734;9.112;2023-06-14T07:49:08;96238.94;;;21.38;40.65
9525;BME280;15940;48.734;9.112;2023-06-14T07:51:35;96240.22;;;21.55;41.14
9525;BME280;15940;48.734;9.112;2023-06-14T07:54:04;96241.19;;;21.67;40.43
9525;BME280;15940;48.734;9.112;2023-06-14T07:56:32;96240.28;;;21.82;40.28
9525;BME280;15940;48.734;9.112;2023-06-14T07:58:59;96237.50;;;21.99;39.44
9525;BME280;15940;48.734;9.112;2023-06-14T08:01:26;96232.22;;;22.11;38.35
9525;BME280;15940;48.734;9.112;2023-06-14T08:03:53;96248.72;;;22.28;38.58
9525;BME280;15940;48.734;9.112;2023-06-14T08:06:20;96236.28;;;22.37;38.67
9525;BME280;15940;48.734;9.112;2023-06-14T08:08:47;96245.78;;;22.53;38.92
9525;BME280;15940;48.734;9.112;2023-06-14T08:11:15;96246.38;;;22.61;37.94
9525;BME280;15940;48.734;9.112;2023-06-14T08:13:42;96250.50;;;22.70;37.65
9525;BME280;15940;48.734;9.112;2023-06-14T08:16:09;96237.38;;;22.97;38.21
9525;BME280;15940;48.734;9.112;2023-06-14T08:18:37;96240.91;;;23.17;36.68
9525;BME280;15940;48.734;9.112;2023-06-14T08:21:03;96250.66;;;23.28;36.38
9525;BME280;15940;48.734;9.112;2023-06-14T08:23:30;96243.97;;;23.31;36.03
9525;BME280;15940;48.734;9.112;2023-06-14T08:25:58;96243.09;;;23.38;37.02
9525;BME280;15940;48.734;9.112;2023-06-14T08:28:28;96249.69;;;23.62;36.21
9525;BME280;15940;48.734;9.112;2023-06-14T08:30:55;96249.56;;;23.60;36.14
9525;BME280;15940;48.734;9.112;2023-06-14T08:33:22;96253.44;;;23.47;36.30
9525;BME280;15940;48.734;9.112;2023-06-14T08:35:49;96262.16;;;23.44;35.99
9525;BME280;15940;48.734;9.112;2023-06-14T08:38:16;96252.69;;;23.27;35.68
9525;BME280;15940;48.734;9.112;2023-06-14T08:43:02;96252.28;;;23.50;35.93
9525;BME280;15940;48.734;9.112;2023-06-14T08:45:29;96261.34;;;23.60;36.75
9525;BME280;15940;48.734;9.112;2023-06-14T08:47:56;96256.38;;;23.59;37.15
9525;BME280;15940;48.734;9.112;2023-06-14T08:50:26;96250.28;;;23.80;36.57
9525;BME280;15940;48.734;9.112;2023-06-14T08:52:57;96252.84;;;23.87;36.11
9525;BME280;15940;48.734;9.112;2023-06-14T08:55:27;96261.16;;;23.97;36.67
9525;BME280;15940;48.734;9.112;2023-06-14T08:57:57;96254.47;;;24.00;35.60
9525;BME280;15940;48.734;9.112;2023-06-14T09:00:27;96270.91;;;24.08;36.87
9525;BME280;15940;48.734;9.112;2023-06-14T09:02:55;96265.34;;;24.27;36.86
9525;BME280;15940;48.734;9.112;2023-06-14T09:05:24;96260.38;;;24.35;35.46
9525;BME280;15940;48.734;9.112;2023-06-14T09:07:51;96251.59;;;24.48;36.03
9525;BME280;15940;48.734;9.112;2023-06-14T09:10:21;96258.09;;;24.63;36.00
9525;BME280;15940;48.734;9.112;2023-06-14T09:12:49;96261.41;;;24.71;35.27
9525;BME280;15940;48.734;9.112;2023-06-14T09:15:16;96254.78;;;24.86;35.47
9525;BME280;15940;48.734;9.112;2023-06-14T09:17:45;96259.09;;;24.98;35.62
9525;BME280;15940;48.734;9.112;2023-06-14T09:20:12;96264.81;;;24.91;36.38
9525;BME280;15940;48.734;9.112;2023-06-14T09:22:44;96261.41;;;24.71;34.48
9525;BME280;15940;48.734;9.112;2023-06-14T09:25:11;96271.53;;;24.57;34.97
9525;BME280;15940;48.734;9.112;2023-06-14T09:27:41;96264.22;;;24.61;35.74
9525;BME280;15940;48.734;9.112;2023-06-14T09:30:10;96264.13;;;24.81;34.48
9525;BME280;15940;48.734;9.112;2023-06-14T09:32:37;96268.47;;;24.93;33.95
9525;BME280;15940;48.734;9.112;2023-06-14T09:35:08;96271.94;;;25.03;35.57
9525;BME280;15940;48.734;9.112;2023-06-14T09:37:36;96267.84;;;25.26;33.49
9525;BME280;15940;48.734;9.112;2023-06-14T09:40:05;96272.38;;;25.31;33.73
9525;BME280;15940;48.734;9.112;2023-06-14T09:42:33;96262.38;;;25.38;33.26
9525;BME280;15940;48.734;9.112;2023-06-14T09:45:03;96272.47;;;25.54;32.89
9525;BME280;15940;48.734;9.112;2023-06-14T09:47:31;96272.34;;;25.52;32.92
9525;BME280;15940;48.734;9.112;2023-06-14T09:49:58;96268.00;;;25.71;33.19
9525;BME280;15940;48.734;9.112;2023-06-14T09:52:27;96275.13;;;25.74;33.66
9525;BME280;15940;48.734;9.112;2023-06-14T09:54:55;96263.94;;;25.83;33.21
9525;BME280;15940;48.734;9.112;2023-06-14T09:57:23;96271.38;;;26.02;31.65
9525;BME280;15940;48.734;9.112;2023-06-14T09:59:56;96263.25;;;25.95;33.42
9525;BME280;15940;48.734;9.112;2023-06-14T10:02:26;96257.03;;;26.06;33.27
9525;BME280;15940;48.734;9.112;2023-06-14T10:05:02;96262.19;;;25.45;31.76
9525;BME280;15940;48.734;9.112;2023-06-14T10:07:40;96260.03;;;24.82;31.92
9525;BME280;15940;48.734;9.112;2023-06-14T10:10:08;96253.09;;;25.12;32.60
9525;BME280;15940;48.734;9.112;2023-06-14T10:12:36;96259.53;;;25.47;33.99
9525;BME280;15940;48.734;9.112;2023-06-14T10:15:04;96262.47;;;25.71;32.55
9525;BME280;15940;48.734;9.112;2023-06-14T10:17:40;96261.66;;;25.16;32.33
9525;BME280;15940;48.734;9.112;2023-06-14T10:20:29;96262.41;;;24.35;32.26
9525;BME280;15940;48.734;9.112;2023-06-14T10:23:03;96271.34;;;23.94;33.36
9525;BME280;15940;48.734;9.112;2023-06-14T10:25:34;96253.56;;;24.17;33.49
9525;BME280;15940;48.734;9.112;2023-06-14T10:28:16;96249.13;;;24.84;31.86
9525;BME280;15940;48.734;9.112;2023-06-14T10:31:04;96254.13;;;25.28;32.61
9525;BME280;15940;48.734;9.112;2023-06-14T10:33:31;96252.81;;;25.50;31.46
9525;BME280;15940;48.734;9.112;2023-06-14T10:36:26;96250.16;;;25.74;32.47
9525;BME280;15940;48.734;9.112;2023-06-14T10:39:07;96252.22;;;25.73;32.60
9525;BME280;15940;48.734;9.112;2023-06-14T10:41:39;96255.81;;;25.97;30.30
9525;BME280;15940;48.734;9.112;2023-06-14T10:44:49;96254.50;;;26.10;28.19
9525;BME280;15940;48.734;9.112;2023-06-14T10:47:48;96254.25;;;26.06;30.60
9525;BME280;15940;48.734;9.112;2023-06-14T10:50:27;96256.69;;;26.11;30.73
9525;BME280;15940;48.734;9.112;2023-06-14T10:52:55;96246.56;;;25.83;30.75
9525;BME280;15940;48.734;9.112;2023-06-14T10:55:23;96257.03;;;25.30;33.18
9525;BME280;15940;48.734;9.112;2023-06-14T10:57:52;96258.75;;;25.14;32.89
9525;BME280;15940;48.734;9.112;2023-06-14T11:00:23;96251.69;;;24.60;32.67
9525;BME280;15940;48.734;9.112;2023-06-14T11:05:51;96245.28;;;24.89;33.83
9525;BME280;15940;48.734;9.112;2023-06-14T11:11:33;96246.34;;;25.36;31.81
9525;BME280;15940;48.734;9.112;2023-06-14T11:14:02;96240.75;;;24.93;32.98
9525;BME280;15940;48.734;9.112;2023-06-14T11:16:29;96249.78;;;24.63;33.34
9525;BME280;15940;48.734;9.112;2023-06-14T11:19:00;96252.94;;;24.28;33.73
9525;BME280;15940;48.734;9.112;2023-06-14T11:21:28;96259.53;;;24.04;34.52
9525;BME280;15940;48.734;9.112;2023-06-14T11:23:57;96251.06;;;24.21;33.94
9525;BME280;15940;48.734;9.112;2023-06-14T11:26:27;96244.09;;;24.10;34.15
9525;BME280;15940;48.734;9.112;2023-06-14T11:28:58;96255.94;;;23.62;34.78
9525;BME280;15940;48.734;9.112;2023-06-14T11:31:26;96262.44;;;23.48;34.33
9525;BME280;15940;48.734;9.112;2023-06-14T11:33:54;96256.31;;;23.30;35.27
9525;BME280;15940;48.734;9.112;2023-06-14T11:36:22;96257.91;;;23.14;36.37
9525;BME280;15940;48.734;9.112;2023-06-14T11:38:49;96256.88;;;23.09;35.56
9525;BME280;15940;48.734;9.112;2023-06-14T11:41:16;96254.00;;;23.17;34.91
9525;BME280;15940;48.734;9.112;2023-06-14T11:43:43;96256.19;;;23.37;35.31
9525;BME280;15940;48.734;9.112;2023-06-14T11:46:15;96257.38;;;23.92;34.16
9525;BME280;15940;48.734;9.112;2023-06-14T11:48:43;96260.38;;;24.45;34.06
9525;BME280;15940;48.734;9.112;2023-06-14T11:51:11;96248.72;;;24.99;32.16
9525;BME280;15940;48.734;9.112;2023-06-14T11:53:38;96243.44;;;25.34;32.54
9525;BME280;15940;48.734;9.112;2023-06-14T11:56:05;96247.78;;;25.58;32.36
9525;BME280;15940;48.734;9.112;2023-06-14T11:58:32;96243.19;;;25.84;31.81
9525;BME280;15940;48.734;9.112;2023-06-14T12:00:59;96242.78;;;26.11;30.21
9525;BME280;15940;48.734;9.112;2023-06-14T12:03:28;96250.91;;;26.19;30.96
9525;BME280;15940;48.734;9.112;2023-06-14T12:06:05;96248.53;;;26.37;29.45
9525;BME280;15940;48.734;9.112;2023-06-14T12:08:35;96242.06;;;26.44;29.58
9525;BME280;15940;48.734;9.112;2023-06-14T12:11:04;96237.25;;;26.23;29.99
9525;BME280;15940;48.734;9.112;2023-06-14T12:13:32;96232.84;;;25.63;30.42
9525;BME280;15940;48.734;9.112;2023-06-14T12:15:59;96239.06;;;25.74;30.49
9525;BME280;15940;48.734;9.112;2023-06-14T12:18:34;96236.00;;;25.91;30.17
9525;BME280;15940;48.734;9.112;2023-06-14T12:21:03;96229.75;;;26.14;29.81
9525;BME280;15940;48.734;9.112;2023-06-14T12:23:45;96235.69;;;26.20;31.59
9525;BME280;15940;48.734;9.112;2023-06-14T12:26:14;96239.38;;;26.58;30.86
9525;BME280;15940;48.734;9.112;2023-06-14T12:28:42;96235.06;;;26.55;29.69
9525;BME280;15940;48.734;9.112;2023-06-14T12:31:10;96231.84;;;26.25;29.31
9525;BME280;15940;48.734;9.112;2023-06-14T12:33:40;96240.72;;;26.00;30.38
9525;BME280;15940;48.734;9.112;2023-06-14T12:36:08;96235.97;;;25.79;30.01
9525;BME280;15940;48.734;9.112;2023-06-14T12:38:36;96241.56;;;25.48;30.29
9525;BME280;15940;48.734;9.112;2023-06-14T12:41:03;96236.56;;;25.14;31.45
9525;BME280;15940;48.734;9.112;2023-06-14T12:43:30;96234.84;;;25.09;32.19
9525;BME280;15940;48.734;9.112;2023-06-14T12:45:57;96228.59;;;24.77;31.86
9525;BME280;15940;48.734;9.112;2023-06-14T12:48:24;96239.47;;;25.37;32.46
9525;BME280;15940;48.734;9.112;2023-06-14T12:50:54;96233.53;;;25.85;30.20
9525;BME280;15940;48.734;9.112;2023-06-14T12:53:21;96228.31;;;26.13;30.54
9525;BME280;15940;48.734;9.112;2023-06-14T12:55:48;96233.03;;;26.10;30.30
9525;BME280;15940;48.734;9.112;2023-06-14T12:58:15;96237.22;;;26.44;31.05
9525;BME280;15940;48.734;9.112;2023-06-14T13:00:45;96236.47;;;26.79;30.98
9525;BME280;15940;48.734;9.112;2023-06-14T13:03:12;96236.13;;;26.96;29.72
9525;BME280;15940;48.734;9.112;2023-06-14T13:05:39;96230.81;;;26.77;29.94
9525;BME280;15940;48.734;9.112;2023-06-14T13:08:08;96241.81;;;26.63;29.57
9525;BME280;15940;48.734;9.112;2023-06-14T13:10:35;96236.72;;;26.60;30.30
9525;BME280;15940;48.734;9.112;2023-06-14T13:13:02;96242.78;;;26.68;31.26
9525;BME280;15940;48.734;9.112;2023-06-14T13:15:29;96234.06;;;26.62;29.93
9525;BME280;15940;48.734;9.112;2023-06-14T13:17:56;96241.59;;;26.14;30.49
9525;BME280;15940;48.734;9.112;2023-06-14T13:20:23;96238.41;;;25.63;30.01
9525;BME280;15940;48.734;9.112;2023-06-14T13:22:50;96244.56;;;25.19;30.93
9525;BME280;15940;48.734;9.112;2023-06-14T13:25:19;96243.69;;;25.38;30.44
9525;BME280;15940;48.734;9.112;2023-06-14T13:27:48;96236.56;;;25.35;31.23
9525;BME280;15940;48.734;9.112;2023-06-14T13:30:15;96240.44;;;25.63;30.68
9525;BME280;15940;48.734;9.112;2023-06-14T13:32:50;96245.03;;;25.91;31.21
9525;BME280;15940;48.734;9.112;2023-06-14T13:35:18;96240.00;;;26.00;31.05
9525;BME280;15940;48.734;9.112;2023-06-14T13:37:45;96235.06;;;26.10;31.07
9525;BME280;15940;48.734;9.112;2023-06-14T13:40:12;96243.22;;;26.41;30.75
9525;BME280;15940;48.734;9.112;2023-06-14T13:42:41;96245.31;;;26.64;30.78